Time;durP1;ratioP1;P1;durP2;ratioP2;P2;SDS_P1;SDS_P2;PMS_P1;PMS_P2;Temp;Humidity;BMP_temperature;BMP_pressure;BME280_temperature;BME280_humidity;BME280_pressure;Samples;Min_cycle;Max_cycle;Signal;HPM_P1;HPM_P2
2022/12/20 00:00:46;;;;;;;65.30;28.23;;;;;;;;;;6219499;28;20014;-69
2022/12/20 00:03:48;;;;;;;97.40;39.47;;;;;;;;;;6217208;28;20017;-69
2022/12/20 00:06:49;;;;;;;93.97;37.53;;;;;;;;;;6211128;28;20108;-69
2022/12/20 00:09:49;;;;;;;69.97;30.47;;;;;;;;;;6212705;28;20018;-69
2022/12/20 00:12:49;;;;;;;53.35;23.92;;;;;;;;;;6222716;28;20236;-69
2022/12/20 00:15:49;;;;;;;42.22;17.50;;;;;;;;;;6221469;28;20077;-69
2022/12/20 00:18:50;;;;;;;40.45;15.95;;;;;;;;;;6212304;28;20259;-69
2022/12/20 00:21:50;;;;;;;47.63;22.40;;;;;;;;;;6216381;28;20076;-69
2022/12/20 00:24:50;;;;;;;51.28;23.45;;;;;;;;;;6213897;28;20021;-69
2022/12/20 00:27:51;;;;;;;38.13;16.02;;;;;;;;;;6213158;28;20387;-69
2022/12/20 00:30:54;;;;;;;40.50;19.38;;;;;;;;;;6207326;28;20280;-69
2022/12/20 00:33:55;;;;;;;49.22;19.13;;;;;;;;;;6212991;28;20026;-69
2022/12/20 00:36:55;;;;;;;27.60;13.07;;;;;;;;;;6213873;28;20107;-69
2022/12/20 00:39:55;;;;;;;32.73;14.03;;;;;;;;;;6219494;28;20038;-69
2022/12/20 00:42:56;;;;;;;45.08;17.48;;;;;;;;;;6213670;28;20042;-69
2022/12/20 00:45:56;;;;;;;55.65;20.75;;;;;;;;;;6211999;28;20109;-69
2022/12/20 00:48:56;;;;;;;47.00;21.97;;;;;;;;;;6203441;28;20569;-69
2022/12/20 00:51:56;;;;;;;57.17;23.27;;;;;;;;;;6217631;28;20092;-69
2022/12/20 00:54:57;;;;;;;41.97;18.00;;;;;;;;;;6213888;28;20453;-69
2022/12/20 00:57:57;;;;;;;47.53;19.05;;;;;;;;;;6212342;28;20425;-69
2022/12/20 01:00:57;;;;;;;49.45;17.60;;;;;;;;;;6213944;28;20017;-69
2022/12/20 01:03:58;;;;;;;40.72;19.73;;;;;;;;;;6217602;28;20014;-70
2022/12/20 01:06:58;;;;;;;40.83;19.67;;;;;;;;;;6215593;28;20034;-70
2022/12/20 01:09:58;;;;;;;33.53;15.05;;;;;;;;;;6212141;28;20133;-70
2022/12/20 01:12:58;;;;;;;42.90;20.52;;;;;;;;;;6215295;28;20441;-70
2022/12/20 01:16:05;;;;;;;39.13;16.13;;;;;;;;;;6210803;28;20100;-70
2022/12/20 01:19:06;;;;;;;44.75;20.77;;;;;;;;;;6221834;28;20045;-69
2022/12/20 01:22:06;;;;;;;35.00;13.23;;;;;;;;;;6214814;28;20024;-70
2022/12/20 01:25:07;;;;;;;35.37;16.90;;;;;;;;;;6215870;28;20072;-70
2022/12/20 01:28:07;;;;;;;46.07;20.87;;;;;;;;;;6211699;28;20441;-69
2022/12/20 01:31:08;;;;;;;40.53;17.83;;;;;;;;;;6213857;28;20021;-70
2022/12/20 01:34:08;;;;;;;28.00;12.87;;;;;;;;;;6211485;28;20393;-70
2022/12/20 01:37:09;;;;;;;35.77;15.87;;;;;;;;;;6212395;28;20018;-70
2022/12/20 01:40:09;;;;;;;34.07;14.87;;;;;;;;;;6210934;28;20121;-70
2022/12/20 01:43:11;;;;;;;29.87;14.27;;;;;;;;;;6223862;28;20454;-70
2022/12/20 01:46:11;;;;;;;;;;;;;;;;;;6210648;28;20018;-70
2022/12/20 01:49:11;;;;;;;29.77;13.88;;;;;;;;;;6214171;28;19971;-69
2022/12/20 01:52:14;;;;;;;35.33;14.15;;;;;;;;;;6214051;28;20527;-69
2022/12/20 01:55:33;;;;;;;34.72;15.73;;;;;;;;;;6211563;28;20014;-70
2022/12/20 01:58:35;;;;;;;30.05;15.95;;;;;;;;;;6212365;28;20037;-69
2022/12/20 02:01:35;;;;;;;37.90;17.05;;;;;;;;;;6211969;28;20101;-70
2022/12/20 02:04:36;;;;;;;37.23;17.00;;;;;;;;;;6205797;28;20040;-69
2022/12/20 02:07:36;;;;;;;39.87;17.77;;;;;;;;;;6204189;28;20046;-69
2022/12/20 02:10:40;;;;;;;35.23;17.73;;;;;;;;;;6203184;28;20041;-69
2022/12/20 02:13:46;;;;;;;32.13;12.63;;;;;;;;;;6211100;28;20009;-70
2022/12/20 02:17:02;;;;;;;27.73;12.80;;;;;;;;;;6210320;28;20026;-70
2022/12/20 02:20:17;;;;;;;38.28;17.80;;;;;;;;;;6210369;28;20466;-70
2022/12/20 02:23:36;;;;;;;36.42;18.08;;;;;;;;;;6210890;28;20053;-70
2022/12/20 02:26:39;;;;;;;32.55;15.82;;;;;;;;;;6217546;28;20024;-69
2022/12/20 02:29:44;;;;;;;46.22;19.17;;;;;;;;;;6220354;28;20022;-70
2022/12/20 02:32:50;;;;;;;44.78;20.58;;;;;;;;;;6209807;28;20208;-70
2022/12/20 02:35:50;;;;;;;36.35;17.30;;;;;;;;;;6217766;28;20025;-73
2022/12/20 02:38:51;;;;;;;22.40;11.90;;;;;;;;;;6205912;28;20039;-70
2022/12/20 02:41:57;;;;;;;39.57;17.40;;;;;;;;;;6221405;28;20692;-70
2022/12/20 02:45:15;;;;;;;21.00;11.55;;;;;;;;;;6222426;28;20501;-70
2022/12/20 02:48:16;;;;;;;38.50;16.17;;;;;;;;;;6220254;28;20057;-70
2022/12/20 02:51:17;;;;;;;28.20;13.53;;;;;;;;;;6218565;28;20539;-70
2022/12/20 02:54:18;;;;;;;32.72;14.95;;;;;;;;;;6215348;28;20499;-70
2022/12/20 02:57:21;;;;;;;40.10;18.87;;;;;;;;;;6216312;28;20022;-70
2022/12/20 03:00:22;;;;;;;24.55;13.30;;;;;;;;;;6218701;28;20150;-70
2022/12/20 03:03:22;;;;;;;34.10;15.33;;;;;;;;;;6226700;28;20014;-70
2022/12/20 03:06:22;;;;;;;24.23;10.90;;;;;;;;;;6214116;28;20014;-70
2022/12/20 03:09:23;;;;;;;34.07;15.97;;;;;;;;;;6219546;28;20017;-70
2022/12/20 03:12:23;;;;;;;42.27;18.27;;;;;;;;;;6218749;28;20049;-70
2022/12/20 03:15:23;;;;;;;33.17;13.67;;;;;;;;;;6216679;28;20025;-70
2022/12/20 03:18:23;;;;;;;25.25;10.88;;;;;;;;;;6212897;28;20106;-69
2022/12/20 03:21:23;;;;;;;42.72;16.98;;;;;;;;;;6209903;28;20025;-69
2022/12/20 03:24:24;;;;;;;40.35;18.70;;;;;;;;;;6216127;28;20025;-69
2022/12/20 03:27:26;;;;;;;43.77;18.37;;;;;;;;;;6211607;28;20017;-69
2022/12/20 03:30:26;;;;;;;;;;;;;;;;;;6216783;28;20105;-69
2022/12/20 03:33:26;;;;;;;27.73;12.95;;;;;;;;;;6214237;28;19913;-69
2022/12/20 03:36:26;;;;;;;33.50;15.90;;;;;;;;;;6217004;28;20712;-69
2022/12/20 03:39:26;;;;;;;29.83;15.43;;;;;;;;;;6214781;28;20041;-69
2022/12/20 03:42:27;;;;;;;45.63;21.63;;;;;;;;;;6217700;28;20133;-70
2022/12/20 03:45:27;;;;;;;24.67;11.75;;;;;;;;;;6214999;28;20108;-70
2022/12/20 03:48:27;;;;;;;44.43;18.83;;;;;;;;;;6214081;28;20039;-71
2022/12/20 03:51:27;;;;;;;22.73;11.27;;;;;;;;;;6225785;28;20116;-70
2022/12/20 03:54:27;;;;;;;29.10;13.43;;;;;;;;;;6207522;28;20401;-70
2022/12/20 03:57:28;;;;;;;30.13;13.90;;;;;;;;;;6216756;28;20029;-70
2022/12/20 04:00:28;;;;;;;31.67;13.90;;;;;;;;;;6212813;28;20022;-70
2022/12/20 04:03:28;;;;;;;41.23;18.73;;;;;;;;;;6211589;28;20018;-70
2022/12/20 04:06:28;;;;;;;31.20;15.87;;;;;;;;;;6213223;28;20032;-70
2022/12/20 04:09:29;;;;;;;32.93;16.37;;;;;;;;;;6212550;28;20029;-70
2022/12/20 04:12:29;;;;;;;40.50;17.93;;;;;;;;;;6214645;28;20017;-70
2022/12/20 04:15:29;;;;;;;20.37;8.90;;;;;;;;;;6219717;28;20033;-70
2022/12/20 04:18:29;;;;;;;29.27;14.18;;;;;;;;;;6207194;28;20029;-69
2022/12/20 04:21:31;;;;;;;34.05;15.73;;;;;;;;;;6213579;28;20421;-69
2022/12/20 04:24:31;;;;;;;;;;;;;;;;;;6209805;28;20259;-69
2022/12/20 04:27:31;;;;;;;34.47;15.90;;;;;;;;;;6217326;28;20249;-69
2022/12/20 04:30:31;;;;;;;33.15;16.90;;;;;;;;;;6216062;28;20076;-69
2022/12/20 04:33:31;;;;;;;33.85;14.38;;;;;;;;;;6214267;28;20117;-69
2022/12/20 04:36:32;;;;;;;46.33;20.93;;;;;;;;;;6209772;28;20018;-70
2022/12/20 04:39:32;;;;;;;42.03;17.70;;;;;;;;;;6215063;28;20050;-70
2022/12/20 04:42:32;;;;;;;46.70;18.25;;;;;;;;;;6214353;28;20028;-70
2022/12/20 04:45:33;;;;;;;30.00;13.03;;;;;;;;;;6213164;28;20496;-70
2022/12/20 04:48:33;;;;;;;15.20;8.47;;;;;;;;;;6212356;28;20049;-70
2022/12/20 04:51:33;;;;;;;35.73;16.93;;;;;;;;;;6211913;28;20076;-70
2022/12/20 04:54:33;;;;;;;37.28;16.65;;;;;;;;;;6218770;28;20367;-70
2022/12/20 04:57:33;;;;;;;39.30;17.33;;;;;;;;;;6213116;28;20079;-70
2022/12/20 05:00:34;;;;;;;40.65;17.75;;;;;;;;;;6213428;28;20117;-70
2022/12/20 05:03:34;;;;;;;32.90;14.50;;;;;;;;;;6220380;28;20022;-70
2022/12/20 05:06:34;;;;;;;26.87;14.37;;;;;;;;;;6214891;28;20026;-70
2022/12/20 05:09:35;;;;;;;36.08;14.57;;;;;;;;;;6210960;28;20497;-70
2022/12/20 05:16:13;;;;;;;26.50;13.20;;;;;;;;;;6209686;28;20038;-70
2022/12/20 05:19:13;;;;;;;31.33;12.23;;;;;;;;;;6205453;28;20129;-70
2022/12/20 05:28:51;;;;;;;33.65;15.75;;;;;;;;;;6202193;28;20026;-70
2022/12/20 05:31:52;;;;;;;28.77;14.33;;;;;;;;;;6204709;28;20080;-70
2022/12/20 05:34:52;;;;;;;41.67;17.53;;;;;;;;;;6210840;28;20595;-70
2022/12/20 05:37:52;;;;;;;53.50;21.42;;;;;;;;;;6201576;28;20045;-71
2022/12/20 05:40:52;;;;;;;45.33;21.20;;;;;;;;;;6213935;28;20329;-70
2022/12/20 05:43:53;;;;;;;43.08;19.60;;;;;;;;;;6210797;28;20017;-70
2022/12/20 05:46:53;;;;;;;36.45;15.55;;;;;;;;;;6211679;28;20482;-70
2022/12/20 05:49:54;;;;;;;38.87;16.40;;;;;;;;;;6210738;28;20044;-70
2022/12/20 05:52:54;;;;;;;35.35;16.38;;;;;;;;;;6211799;28;20025;-70
2022/12/20 05:55:55;;;;;;;42.67;19.07;;;;;;;;;;6217320;28;20433;-70
2022/12/20 05:58:56;;;;;;;38.17;18.93;;;;;;;;;;6216749;28;20013;-70
2022/12/20 06:01:56;;;;;;;58.13;22.73;;;;;;;;;;6210315;28;20028;-70
2022/12/20 06:04:57;;;;;;;29.00;13.85;;;;;;;;;;6214781;28;20346;-70
2022/12/20 06:07:58;;;;;;;57.55;27.42;;;;;;;;;;6208634;28;20014;-70
2022/12/20 06:10:58;;;;;;;43.13;17.35;;;;;;;;;;6213565;28;20034;-70
2022/12/20 06:13:58;;;;;;;44.77;20.30;;;;;;;;;;6213725;28;20022;-70
2022/12/20 06:16:58;;;;;;;36.00;17.10;;;;;;;;;;6204298;28;20030;-70
2022/12/20 06:19:58;;;;;;;44.15;21.70;;;;;;;;;;6199243;28;20064;-70
2022/12/20 06:22:59;;;;;;;44.92;17.77;;;;;;;;;;6211159;28;20393;-70
2022/12/20 06:25:59;;;;;;;41.33;18.60;;;;;;;;;;6200843;28;20050;-71
2022/12/20 06:29:01;;;;;;;53.63;27.77;;;;;;;;;;6210748;28;20076;-70
2022/12/20 06:32:01;;;;;;;59.95;25.13;;;;;;;;;;6206453;28;20022;-70
2022/12/20 06:35:01;;;;;;;46.00;23.00;;;;;;;;;;6219279;28;20036;-70
2022/12/20 06:38:01;;;;;;;40.42;18.30;;;;;;;;;;6210306;28;20042;-70
2022/12/20 06:41:01;;;;;;;40.22;20.77;;;;;;;;;;6214720;28;20303;-70
2022/12/20 06:44:02;;;;;;;44.17;19.70;;;;;;;;;;6210764;28;20033;-69
2022/12/20 06:47:02;;;;;;;43.90;19.43;;;;;;;;;;6211166;28;20021;-70
2022/12/20 06:50:03;;;;;;;46.33;23.97;;;;;;;;;;6203273;28;20277;-69
2022/12/20 06:53:03;;;;;;;50.33;25.13;;;;;;;;;;6210912;28;20026;-69
2022/12/20 06:56:04;;;;;;;53.10;23.77;;;;;;;;;;6210866;28;20141;-70
2022/12/20 06:59:04;;;;;;;51.10;21.13;;;;;;;;;;6209085;28;20037;-71
2022/12/20 07:02:04;;;;;;;39.20;18.93;;;;;;;;;;6218055;28;20025;-71
2022/12/20 07:05:05;;;;;;;44.67;20.33;;;;;;;;;;6206236;28;20021;-70
2022/12/20 07:08:05;;;;;;;39.93;19.63;;;;;;;;;;6231353;28;20541;-70
2022/12/20 07:11:06;;;;;;;65.33;25.80;;;;;;;;;;6205365;28;20026;-70
2022/12/20 07:14:06;;;;;;;48.23;22.33;;;;;;;;;;6197892;28;20029;-70
2022/12/20 07:17:06;;;;;;;39.57;15.80;;;;;;;;;;6202656;28;20467;-70
2022/12/20 07:20:06;;;;;;;44.95;18.67;;;;;;;;;;6204391;28;20593;-70
2022/12/20 07:23:07;;;;;;;34.77;15.47;;;;;;;;;;6190836;28;20037;-70
2022/12/20 07:26:08;;;;;;;47.43;19.20;;;;;;;;;;6195559;28;20026;-70
2022/12/20 07:29:08;;;;;;;42.45;19.30;;;;;;;;;;6198104;28;20045;-70
2022/12/20 07:32:08;;;;;;;40.90;19.13;;;;;;;;;;6200656;28;20108;-71
2022/12/20 07:35:09;;;;;;;27.83;12.37;;;;;;;;;;6196758;28;20049;-71
2022/12/20 07:38:10;;;;;;;42.37;19.00;;;;;;;;;;6198424;28;20057;-70
2022/12/20 07:41:15;;;;;;;41.27;20.00;;;;;;;;;;6211278;28;20335;-71
2022/12/20 07:44:15;;;;;;;34.78;18.17;;;;;;;;;;6208309;28;20021;-71
2022/12/20 07:47:15;;;;;;;49.90;20.63;;;;;;;;;;6211400;28;20037;-71
2022/12/20 07:50:16;;;;;;;53.42;21.40;;;;;;;;;;6212239;28;20026;-71
2022/12/20 07:53:16;;;;;;;56.57;23.60;;;;;;;;;;6213730;28;20025;-71
2022/12/20 07:56:17;;;;;;;37.53;18.07;;;;;;;;;;6208445;28;20029;-71
2022/12/20 07:59:19;;;;;;;36.33;17.25;;;;;;;;;;6194603;28;20035;-71
2022/12/20 08:02:23;;;;;;;23.20;12.57;;;;;;;;;;6211839;28;20018;-71
2022/12/20 08:05:23;;;;;;;53.60;22.58;;;;;;;;;;6209211;28;20094;-71
2022/12/20 08:08:23;;;;;;;52.90;26.20;;;;;;;;;;6224655;28;20154;-71
2022/12/20 08:11:23;;;;;;;53.53;23.17;;;;;;;;;;6211710;28;20024;-71
2022/12/20 08:14:24;;;;;;;63.43;28.50;;;;;;;;;;6207471;28;20014;-71
2022/12/20 08:17:24;;;;;;;60.13;25.83;;;;;;;;;;6208067;28;20018;-71
2022/12/20 08:20:24;;;;;;;50.13;22.97;;;;;;;;;;6207224;28;20018;-72
2022/12/20 08:23:24;;;;;;;42.03;19.37;;;;;;;;;;6205636;28;20483;-72
2022/12/20 08:26:25;;;;;;;75.30;33.70;;;;;;;;;;6203875;28;20053;-72
2022/12/20 08:29:25;;;;;;;59.63;27.03;;;;;;;;;;6209984;28;20029;-72
2022/12/20 08:32:25;;;;;;;42.37;21.93;;;;;;;;;;6210322;28;20342;-72
2022/12/20 08:35:26;;;;;;;37.03;16.53;;;;;;;;;;6218031;28;20030;-72
2022/12/20 08:38:27;;;;;;;38.57;17.13;;;;;;;;;;6212372;28;20042;-72
2022/12/20 08:41:27;;;;;;;46.80;17.23;;;;;;;;;;6210926;28;20010;-72
2022/12/20 08:44:27;;;;;;;34.17;16.13;;;;;;;;;;6210032;28;20015;-72
2022/12/20 08:47:28;;;;;;;41.58;16.92;;;;;;;;;;6213076;28;20461;-72
2022/12/20 08:50:28;;;;;;;54.73;21.57;;;;;;;;;;6207922;28;20299;-72
2022/12/20 08:53:28;;;;;;;38.93;16.47;;;;;;;;;;6219426;28;20021;-72
2022/12/20 08:56:29;;;;;;;67.90;23.73;;;;;;;;;;6209303;28;20030;-72
2022/12/20 08:59:29;;;;;;;52.80;21.83;;;;;;;;;;6210116;28;20093;-72
2022/12/20 09:02:29;;;;;;;55.53;20.63;;;;;;;;;;6208531;28;20032;-72
2022/12/20 09:05:29;;;;;;;41.78;16.40;;;;;;;;;;6209707;28;20025;-72
2022/12/20 09:08:29;;;;;;;72.10;25.70;;;;;;;;;;6209974;28;20009;-72
2022/12/20 09:11:30;;;;;;;28.93;13.47;;;;;;;;;;6217113;28;20442;-73
2022/12/20 09:14:30;;;;;;;27.03;12.67;;;;;;;;;;6209107;28;20026;-72
2022/12/20 09:17:30;;;;;;;28.73;15.57;;;;;;;;;;6214890;28;20096;-72
2022/12/20 09:20:31;;;;;;;23.20;13.00;;;;;;;;;;6211704;28;20018;-72
2022/12/20 09:23:32;;;;;;;35.47;18.45;;;;;;;;;;6210385;28;20045;-73
2022/12/20 09:26:34;;;;;;;52.63;21.27;;;;;;;;;;6209522;28;20028;-73
2022/12/20 09:29:34;;;;;;;42.20;18.38;;;;;;;;;;6217222;28;20021;-73
2022/12/20 09:32:34;;;;;;;69.75;30.80;;;;;;;;;;6205398;28;20045;-72
2022/12/20 09:35:34;;;;;;;41.83;22.53;;;;;;;;;;6216589;28;20014;-72
2022/12/20 09:38:35;;;;;;;74.33;30.60;;;;;;;;;;6211365;28;20381;-72
2022/12/20 09:41:42;;;;;;;52.20;21.30;;;;;;;;;;6210648;28;20002;-72
2022/12/20 09:44:43;;;;;;;72.57;26.17;;;;;;;;;;6212370;28;20025;-73
2022/12/20 09:47:43;;;;;;;47.13;20.83;;;;;;;;;;6204759;28;20034;-72
2022/12/20 09:51:10;;;;;;;22.50;10.40;;;;;;;;;;6209890;28;20080;-72
2022/12/20 09:54:11;;;;;;;42.83;19.98;;;;;;;;;;6208427;28;20382;-72
2022/12/20 09:57:20;;;;;;;43.05;19.67;;;;;;;;;;6207835;28;20502;-72
2022/12/20 10:00:20;;;;;;;51.03;21.45;;;;;;;;;;6204226;28;20037;-72
2022/12/20 10:03:31;;;;;;;45.40;19.30;;;;;;;;;;6194736;28;20022;-73
2022/12/20 10:06:34;;;;;;;58.78;23.77;;;;;;;;;;6204824;28;20099;-73
2022/12/20 10:09:34;;;;;;;61.33;25.25;;;;;;;;;;6210105;28;20049;-73
2022/12/20 10:12:53;;;;;;;51.85;19.67;;;;;;;;;;6204534;28;20462;-72
2022/12/20 10:16:14;;;;;;;49.20;20.10;;;;;;;;;;6209253;28;20578;-72
2022/12/20 10:19:26;;;;;;;44.63;20.30;;;;;;;;;;6194893;28;20041;-72
2022/12/20 10:22:36;;;;;;;49.08;20.90;;;;;;;;;;6203353;28;20045;-72
2022/12/20 10:25:37;;;;;;;41.83;18.25;;;;;;;;;;6202734;28;20021;-72
2022/12/20 10:28:37;;;;;;;43.60;19.20;;;;;;;;;;6209652;28;20032;-73
2022/12/20 10:31:38;;;;;;;35.47;16.40;;;;;;;;;;6211515;28;20494;-73
2022/12/20 10:34:39;;;;;;;51.63;23.17;;;;;;;;;;6220067;28;20465;-74
2022/12/20 10:37:55;;;;;;;29.60;14.02;;;;;;;;;;6206316;28;20018;-74
2022/12/20 10:41:00;;;;;;;38.88;18.35;;;;;;;;;;6194954;28;20091;-74
2022/12/20 10:44:01;;;;;;;41.75;19.65;;;;;;;;;;6208295;28;20022;-74
2022/12/20 10:47:02;;;;;;;52.42;20.35;;;;;;;;;;6208255;28;20042;-74
2022/12/20 10:50:12;;;;;;;44.40;19.73;;;;;;;;;;6218626;28;20502;-74
2022/12/20 10:53:19;;;;;;;35.30;15.15;;;;;;;;;;6206863;28;20057;-74
2022/12/20 10:56:20;;;;;;;55.45;24.75;;;;;;;;;;6210295;28;20236;-74
2022/12/20 10:59:20;;;;;;;44.70;18.73;;;;;;;;;;6208567;28;20649;-75
2022/12/20 11:06:01;;;;;;;43.05;19.30;;;;;;;;;;6206669;28;20030;-76
2022/12/20 11:09:23;;;;;;;60.92;25.33;;;;;;;;;;6217880;28;20663;-75
2022/12/20 11:12:23;;;;;;;54.78;22.45;;;;;;;;;;6215003;28;20342;-76
2022/12/20 11:15:25;;;;;;;59.80;25.13;;;;;;;;;;6217399;28;20677;-76
2022/12/20 11:18:26;;;;;;;54.08;19.08;;;;;;;;;;6214392;28;20342;-76
2022/12/20 11:21:50;;;;;;;54.35;25.83;;;;;;;;;;6212120;28;20310;-76
2022/12/20 11:25:09;;;;;;;56.95;25.67;;;;;;;;;;6210809;28;20070;-76
2022/12/20 11:28:24;;;;;;;38.33;17.50;;;;;;;;;;6200868;28;20030;-77
2022/12/20 11:31:37;;;;;;;36.85;17.50;;;;;;;;;;6210311;28;20049;-76
2022/12/20 11:34:37;;;;;;;31.45;14.90;;;;;;;;;;6202838;28;20033;-76
2022/12/20 11:37:46;;;;;;;53.70;21.80;;;;;;;;;;6212930;28;20096;-76
2022/12/20 11:40:50;;;;;;;37.53;16.77;;;;;;;;;;6210436;28;20033;-76
2022/12/20 11:43:53;;;;;;;40.75;18.55;;;;;;;;;;6207988;28;20024;-76
2022/12/20 11:47:01;;;;;;;52.85;23.15;;;;;;;;;;6203749;28;20026;-76
2022/12/20 11:50:11;;;;;;;33.10;13.00;;;;;;;;;;6199675;28;20687;-77
2022/12/20 11:53:27;;;;;;;39.33;16.45;;;;;;;;;;6202924;28;20669;-77
2022/12/20 11:56:35;;;;;;;42.65;18.98;;;;;;;;;;6207780;28;20495;-77
2022/12/20 11:59:39;;;;;;;35.33;15.40;;;;;;;;;;6219943;28;20029;-76
2022/12/20 12:02:57;;;;;;;29.00;13.27;;;;;;;;;;6212970;28;20024;-77
2022/12/20 12:06:09;;;;;;;47.55;20.42;;;;;;;;;;6194078;28;20034;-77
2022/12/20 12:09:21;;;;;;;23.60;12.07;;;;;;;;;;6217284;28;20314;-77
2022/12/20 12:12:32;;;;;;;26.05;12.98;;;;;;;;;;6201678;28;20030;-78
2022/12/20 12:15:34;;;;;;;42.85;17.15;;;;;;;;;;6191514;28;20109;-78
2022/12/20 12:18:35;;;;;;;37.10;17.30;;;;;;;;;;6203174;28;20117;-78
2022/12/20 12:21:38;;;;;;;37.85;17.85;;;;;;;;;;6203218;28;20034;-78
2022/12/20 12:24:41;;;;;;;41.80;17.42;;;;;;;;;;6208565;28;20701;-78
2022/12/20 12:27:41;;;;;;;33.47;16.67;;;;;;;;;;6209319;28;20032;-80
2022/12/20 12:30:44;;;;;;;35.03;16.30;;;;;;;;;;6217400;28;20029;-78
2022/12/20 12:33:47;;;;;;;35.10;16.45;;;;;;;;;;6216547;28;20474;-78
2022/12/20 12:36:55;;;;;;;74.20;32.00;;;;;;;;;;6215202;28;20021;-79
2022/12/20 12:40:21;;;;;;;55.65;22.17;;;;;;;;;;6214268;28;20117;-79
2022/12/20 12:43:28;;;;;;;38.78;17.98;;;;;;;;;;6204477;28;20493;-79
2022/12/20 12:46:35;;;;;;;63.15;24.90;;;;;;;;;;6203946;28;20030;-79
2022/12/20 12:49:35;;;;;;;43.30;16.98;;;;;;;;;;6213881;28;20495;-80
2022/12/20 12:52:48;;;;;;;65.77;26.00;;;;;;;;;;6200458;28;20399;-80
2022/12/20 12:55:50;;;;;;;28.10;13.93;;;;;;;;;;6209340;28;20026;-81
2022/12/20 12:59:05;;;;;;;29.52;13.88;;;;;;;;;;6214257;28;20028;-81
2022/12/20 13:02:12;;;;;;;44.63;18.75;;;;;;;;;;6214510;28;20026;-81
2022/12/20 13:05:12;;;;;;;55.75;26.35;;;;;;;;;;6214794;28;20029;-82
2022/12/20 13:08:16;;;;;;;65.33;28.90;;;;;;;;;;6210274;28;20042;-81
2022/12/20 13:11:27;;;;;;;41.28;19.27;;;;;;;;;;6222016;28;20100;-81
2022/12/20 13:14:27;;;;;;;50.55;20.60;;;;;;;;;;6217546;28;20042;-83
2022/12/20 13:17:28;;;;;;;63.10;26.15;;;;;;;;;;6218895;28;20058;-81
2022/12/20 13:20:29;;;;;;;28.80;12.60;;;;;;;;;;6218297;28;20030;-81
2022/12/20 13:23:29;;;;;;;46.00;21.85;;;;;;;;;;6214225;28;20522;-81
2022/12/20 13:26:49;;;;;;;50.00;22.40;;;;;;;;;;6209709;28;20014;-81
2022/12/20 13:29:51;;;;;;;59.25;26.35;;;;;;;;;;6214261;28;20155;-81
2022/12/20 13:32:51;;;;;;;63.95;29.13;;;;;;;;;;6217194;28;20354;-81
2022/12/20 13:35:57;;;;;;;37.17;18.80;;;;;;;;;;6216737;28;20391;-81
2022/12/20 13:38:58;;;;;;;37.92;16.85;;;;;;;;;;6207812;28;20510;-80
2022/12/20 13:42:34;;;;;;;73.28;33.25;;;;;;;;;;6214031;28;20120;-81
2022/12/20 13:45:34;;;;;;;33.42;15.98;;;;;;;;;;6165378;28;20109;-80
2022/12/20 13:48:41;;;;;;;64.03;27.47;;;;;;;;;;6219875;28;20025;-80
2022/12/20 13:51:41;;;;;;;62.17;26.10;;;;;;;;;;6215660;28;20026;-80
2022/12/20 13:54:43;;;;;;;70.47;27.87;;;;;;;;;;6205127;28;20050;-79
2022/12/20 13:57:44;;;;;;;41.45;20.50;;;;;;;;;;6215239;28;20041;-79
2022/12/20 14:00:46;;;;;;;49.90;21.40;;;;;;;;;;6203336;28;20094;-80
2022/12/20 14:03:47;;;;;;;31.35;16.27;;;;;;;;;;6213171;28;20029;-80
2022/12/20 14:06:55;;;;;;;46.67;20.90;;;;;;;;;;6204577;28;20018;-81
2022/12/20 14:09:57;;;;;;;59.63;23.40;;;;;;;;;;6202824;28;20014;-81
2022/12/20 14:12:58;;;;;;;46.55;19.35;;;;;;;;;;6198141;28;20022;-81
2022/12/20 14:16:06;;;;;;;52.17;22.70;;;;;;;;;;6221652;28;20053;-81
2022/12/20 14:19:12;;;;;;;48.08;21.38;;;;;;;;;;6209671;28;20500;-81
2022/12/20 14:22:12;;;;;;;45.90;22.15;;;;;;;;;;6215313;28;20407;-80
2022/12/20 14:25:15;;;;;;;49.87;23.03;;;;;;;;;;6220199;28;20024;-80
2022/12/20 14:28:35;;;;;;;46.03;23.02;;;;;;;;;;6216069;28;20028;-80
2022/12/20 14:31:40;;;;;;;79.95;32.83;;;;;;;;;;6200155;28;20109;-80
2022/12/20 14:34:41;;;;;;;61.15;25.92;;;;;;;;;;6212955;28;20083;-80
2022/12/20 14:37:51;;;;;;;75.07;28.85;;;;;;;;;;6215997;28;20054;-80
2022/12/20 14:40:52;;;;;;;46.38;23.02;;;;;;;;;;6221549;28;20389;-81
2022/12/20 14:43:58;;;;;;;51.33;22.35;;;;;;;;;;6224692;28;20021;-80
2022/12/20 14:46:59;;;;;;;72.55;32.55;;;;;;;;;;6204444;28;20486;-80
2022/12/20 14:50:01;;;;;;;119.03;51.00;;;;;;;;;;6220869;28;20038;-79
2022/12/20 14:53:03;;;;;;;103.70;44.53;;;;;;;;;;6225258;28;20091;-80
2022/12/20 14:56:03;;;;;;;88.10;33.20;;;;;;;;;;6211526;28;20247;-79
2022/12/20 14:59:11;;;;;;;65.47;31.80;;;;;;;;;;6216982;28;20017;-80
2022/12/20 15:02:31;;;;;;;59.15;22.48;;;;;;;;;;6216045;28;20030;-80
2022/12/20 15:05:32;;;;;;;60.55;25.55;;;;;;;;;;6203448;28;20045;-79
2022/12/20 15:08:36;;;;;;;49.40;19.13;;;;;;;;;;6219406;28;20064;-79
2022/12/20 15:11:37;;;;;;;36.70;18.80;;;;;;;;;;6218097;28;20500;-80
2022/12/20 15:14:39;;;;;;;50.20;24.57;;;;;;;;;;6219190;28;20022;-79
2022/12/20 15:17:40;;;;;;;76.05;32.20;;;;;;;;;;6218247;28;20044;-79
2022/12/20 15:20:40;;;;;;;79.57;34.20;;;;;;;;;;6212788;28;20053;-80
2022/12/20 15:23:50;;;;;;;80.10;33.27;;;;;;;;;;6202926;28;20014;-79
2022/12/20 15:26:51;;;;;;;74.00;31.33;;;;;;;;;;6209519;28;20021;-79
2022/12/20 15:29:51;;;;;;;71.78;31.02;;;;;;;;;;6210893;28;20013;-79
2022/12/20 15:32:52;;;;;;;65.72;26.52;;;;;;;;;;6217819;28;20089;-79
2022/12/20 15:35:52;;;;;;;52.73;22.37;;;;;;;;;;6219840;28;20026;-81
2022/12/20 15:38:55;;;;;;;47.80;19.73;;;;;;;;;;6218411;28;20038;-80
2022/12/20 15:41:57;;;;;;;38.08;16.92;;;;;;;;;;6220748;28;20018;-79
2022/12/20 15:44:57;;;;;;;;;;;;;;;;;;6218824;28;20032;-79
2022/12/20 15:47:57;;;;;;;76.15;29.48;;;;;;;;;;6213321;28;20285;-79
2022/12/20 15:50:58;;;;;;;93.20;38.37;;;;;;;;;;6223224;28;20005;-80
2022/12/20 15:53:59;;;;;;;42.07;19.57;;;;;;;;;;6220325;28;20026;-81
2022/12/20 15:57:03;;;;;;;67.65;27.55;;;;;;;;;;6220558;28;20048;-79
2022/12/20 16:00:05;;;;;;;69.10;29.42;;;;;;;;;;6228329;28;20222;-79
2022/12/20 16:03:11;;;;;;;55.70;24.92;;;;;;;;;;6218260;28;20010;-79
2022/12/20 16:06:11;;;;;;;39.70;20.90;;;;;;;;;;6216847;28;20113;-80
2022/12/20 16:09:12;;;;;;;52.53;24.30;;;;;;;;;;6219189;28;20431;-80
2022/12/20 16:12:17;;;;;;;77.93;32.17;;;;;;;;;;6203077;28;20562;-80
2022/12/20 16:15:21;;;;;;;84.28;33.53;;;;;;;;;;6207463;28;20018;-80
2022/12/20 16:18:21;;;;;;;88.40;35.45;;;;;;;;;;6214313;28;20227;-80
2022/12/20 16:21:23;;;;;;;95.17;37.37;;;;;;;;;;6203920;28;20021;-79
2022/12/20 16:24:23;;;;;;;105.78;41.95;;;;;;;;;;6207843;28;20430;-79
2022/12/20 16:27:23;;;;;;;97.33;44.40;;;;;;;;;;6215142;28;20018;-80
2022/12/20 16:30:25;;;;;;;101.77;40.83;;;;;;;;;;6214617;28;20728;-80
2022/12/20 16:33:26;;;;;;;105.18;48.03;;;;;;;;;;6219058;28;20022;-80
2022/12/20 16:36:26;;;;;;;103.63;43.30;;;;;;;;;;6222674;28;20022;-80
2022/12/20 16:39:26;;;;;;;88.73;37.30;;;;;;;;;;6214817;28;20046;-81
2022/12/20 16:42:26;;;;;;;64.97;26.53;;;;;;;;;;6218923;28;20148;-81
2022/12/20 16:45:28;;;;;;;72.67;30.23;;;;;;;;;;6221503;28;20026;-82
2022/12/20 16:48:28;;;;;;;82.05;32.85;;;;;;;;;;6217773;28;20086;-82
2022/12/20 16:51:32;;;;;;;71.40;30.40;;;;;;;;;;6217275;28;20012;-81
2022/12/20 16:54:33;;;;;;;84.93;36.85;;;;;;;;;;6217852;28;20034;-82
2022/12/20 16:57:33;;;;;;;47.47;22.97;;;;;;;;;;6222292;28;20128;-83
2022/12/20 17:00:36;;;;;;;71.53;31.73;;;;;;;;;;6214893;28;20056;-82
2022/12/20 17:03:36;;;;;;;104.35;40.90;;;;;;;;;;6206211;28;20017;-82
2022/12/20 17:06:37;;;;;;;111.80;45.63;;;;;;;;;;6214679;28;20022;-83
2022/12/20 17:09:37;;;;;;;91.00;40.07;;;;;;;;;;6214717;28;20029;-82
2022/12/20 17:12:37;;;;;;;96.17;40.90;;;;;;;;;;6221504;28;20014;-83
2022/12/20 17:15:39;;;;;;;102.60;43.43;;;;;;;;;;6223240;28;20022;-83
2022/12/20 17:18:40;;;;;;;110.80;50.03;;;;;;;;;;6219046;28;20022;-83
2022/12/20 17:21:44;;;;;;;100.70;45.53;;;;;;;;;;6223374;28;20029;-84
2022/12/20 17:24:44;;;;;;;104.05;43.10;;;;;;;;;;6223947;28;20014;-85
2022/12/20 17:27:47;;;;;;;100.53;44.40;;;;;;;;;;6223766;28;20022;-85
2022/12/20 17:30:51;;;;;;;83.03;36.50;;;;;;;;;;6224352;28;20055;-85
2022/12/20 17:33:51;;;;;;;88.93;39.03;;;;;;;;;;6222121;28;20017;-86
2022/12/20 17:36:53;;;;;;;108.87;52.47;;;;;;;;;;6233533;28;20044;-85
2022/12/20 17:39:58;;;;;;;119.32;51.65;;;;;;;;;;6222886;28;20038;-85
2022/12/20 17:43:00;;;;;;;90.20;42.63;;;;;;;;;;6224434;28;20040;-85
2022/12/20 17:46:00;;;;;;;120.28;48.65;;;;;;;;;;6236663;28;20084;-86
2022/12/20 17:49:03;;;;;;;120.97;44.63;;;;;;;;;;6225795;28;20970;-85
2022/12/20 17:52:03;;;;;;;116.47;47.53;;;;;;;;;;6223111;28;20108;-84
2022/12/20 17:55:04;;;;;;;140.60;59.53;;;;;;;;;;6229102;28;20036;-85
2022/12/20 17:58:04;;;;;;;129.23;53.17;;;;;;;;;;6237550;28;20014;-86